sensor_id;sensor_type;location;lat;lon;timestamp;pressure;altitude;pressure_sealevel;temperature;humidity
13934;BME280;7039;52.168;9.866;2022-11-21T00:01:33;99446.78;;;-0.18;91.66
13934;BME280;7039;52.168;9.866;2022-11-21T00:03:59;99447.75;;;-0.25;92.15
13934;BME280;7039;52.168;9.866;2022-11-21T00:06:26;99456.00;;;-0.11;91.85
13934;BME280;7039;52.168;9.866;2022-11-21T00:08:52;99439.63;;;-0.05;91.60
13934;BME280;7039;52.168;9.866;2022-11-21T00:11:20;99447.16;;;0.03;91.60
13934;BME280;7039;52.168;9.866;2022-11-21T00:13:46;99446.38;;;-0.01;91.41
13934;BME280;7039;52.168;9.866;2022-11-21T00:16:15;99451.31;;;0.07;91.21
13934;BME280;7039;52.168;9.866;2022-11-21T00:18:41;99452.22;;;0.04;90.97
13934;BME280;7039;52.168;9.866;2022-11-21T00:21:11;99454.66;;;0.10;91.08
13934;BME280;7039;52.168;9.866;2022-11-21T00:23:37;99449.66;;;0.04;91.05
13934;BME280;7039;52.168;9.866;2022-11-21T00:26:04;99438.66;;;0.01;91.23
13934;BME280;7039;52.168;9.866;2022-11-21T00:28:31;99445.41;;;0.05;91.17
13934;BME280;7039;52.168;9.866;2022-11-21T00:30:57;99440.28;;;0.03;91.21
13934;BME280;7039;52.168;9.866;2022-11-21T00:33:25;99442.78;;;0.06;91.69
13934;BME280;7039;52.168;9.866;2022-11-21T00:35:52;99436.94;;;-0.01;91.84
13934;BME280;7039;52.168;9.866;2022-11-21T00:38:18;99434.38;;;-0.01;91.32
13934;BME280;7039;52.168;9.866;2022-11-21T00:40:45;99435.41;;;-0.08;91.62
13934;BME280;7039;52.168;9.866;2022-11-21T00:43:11;99431.81;;;-0.01;91.79
13934;BME280;7039;52.168;9.866;2022-11-21T00:45:38;99430.88;;;0.04;91.58
13934;BME280;7039;52.168;9.866;2022-11-21T00:48:05;99424.06;;;0.03;91.61
13934;BME280;7039;52.168;9.866;2022-11-21T00:50:33;99423.09;;;0.07;91.80
13934;BME280;7039;52.168;9.866;2022-11-21T00:53:00;99424.78;;;0.09;91.63
13934;BME280;7039;52.168;9.866;2022-11-21T00:55:26;99423.06;;;0.08;91.59
13934;BME280;7039;52.168;9.866;2022-11-21T00:57:53;99408.63;;;0.04;91.50
13934;BME280;7039;52.168;9.866;2022-11-21T01:00:19;99415.81;;;-0.09;92.28
13934;BME280;7039;52.168;9.866;2022-11-21T01:02:46;99414.03;;;-0.07;92.23
13934;BME280;7039;52.168;9.866;2022-11-21T01:05:12;99409.69;;;-0.03;92.20
13934;BME280;7039;52.168;9.866;2022-11-21T01:07:40;99410.47;;;0.01;92.22
13934;BME280;7039;52.168;9.866;2022-11-21T01:10:07;99412.25;;;-0.03;92.32
13934;BME280;7039;52.168;9.866;2022-11-21T01:12:33;99407.34;;;-0.14;93.26
13934;BME280;7039;52.168;9.866;2022-11-21T01:15:00;99409.97;;;-0.15;93.33
13934;BME280;7039;52.168;9.866;2022-11-21T01:17:26;99419.31;;;-0.13;93.03
13934;BME280;7039;52.168;9.866;2022-11-21T01:19:53;99416.75;;;-0.13;93.33
13934;BME280;7039;52.168;9.866;2022-11-21T01:22:19;99424.88;;;-0.33;94.08
13934;BME280;7039;52.168;9.866;2022-11-21T01:24:47;99428.38;;;-0.37;95.37
13934;BME280;7039;52.168;9.866;2022-11-21T01:27:13;99422.22;;;-0.28;94.49
13934;BME280;7039;52.168;9.866;2022-11-21T01:29:40;99415.25;;;-0.23;94.10
13934;BME280;7039;52.168;9.866;2022-11-21T01:32:06;99412.56;;;-0.17;94.32
13934;BME280;7039;52.168;9.866;2022-11-21T01:34:33;99407.47;;;-0.18;94.06
13934;BME280;7039;52.168;9.866;2022-11-21T01:36:59;99414.16;;;-0.11;93.85
13934;BME280;7039;52.168;9.866;2022-11-21T01:39:26;99409.88;;;-0.11;93.71
13934;BME280;7039;52.168;9.866;2022-11-21T01:41:54;99393.69;;;-0.13;93.65
13934;BME280;7039;52.168;9.866;2022-11-21T01:44:22;99403.25;;;-0.21;94.43
13934;BME280;7039;52.168;9.866;2022-11-21T01:46:50;99400.00;;;-0.28;94.78
13934;BME280;7039;52.168;9.866;2022-11-21T01:49:19;99407.06;;;-0.37;95.48
13934;BME280;7039;52.168;9.866;2022-11-21T01:51:48;99407.03;;;-0.36;95.86
13934;BME280;7039;52.168;9.866;2022-11-21T01:54:20;99405.13;;;-0.28;95.75
13934;BME280;7039;52.168;9.866;2022-11-21T01:56:51;99397.50;;;-0.31;96.00
13934;BME280;7039;52.168;9.866;2022-11-21T01:59:26;99401.81;;;-0.31;96.26
13934;BME280;7039;52.168;9.866;2022-11-21T02:01:56;99401.91;;;-0.36;96.48
13934;BME280;7039;52.168;9.866;2022-11-21T02:04:27;99405.19;;;-0.31;96.38
13934;BME280;7039;52.168;9.866;2022-11-21T02:06:54;99403.69;;;-0.39;96.45
13934;BME280;7039;52.168;9.866;2022-11-21T02:09:20;99403.81;;;-0.46;97.41
13934;BME280;7039;52.168;9.866;2022-11-21T02:11:50;99406.34;;;-0.44;97.30
13934;BME280;7039;52.168;9.866;2022-11-21T02:14:17;99400.31;;;-0.42;96.99
13934;BME280;7039;52.168;9.866;2022-11-21T02:16:45;99400.19;;;-0.35;97.15
13934;BME280;7039;52.168;9.866;2022-11-21T02:19:18;99404.38;;;-0.31;97.28
13934;BME280;7039;52.168;9.866;2022-11-21T02:21:50;99410.09;;;-0.20;96.96
13934;BME280;7039;52.168;9.866;2022-11-21T02:24:23;99416.88;;;-0.19;96.85
13934;BME280;7039;52.168;9.866;2022-11-21T02:26:53;99409.31;;;-0.25;96.53
13934;BME280;7039;52.168;9.866;2022-11-21T02:29:20;99406.97;;;-0.34;96.78
13934;BME280;7039;52.168;9.866;2022-11-21T02:31:47;99413.78;;;-0.32;96.62
13934;BME280;7039;52.168;9.866;2022-11-21T02:34:13;99418.75;;;-0.26;96.19
13934;BME280;7039;52.168;9.866;2022-11-21T02:36:42;99412.19;;;-0.37;96.54
13934;BME280;7039;52.168;9.866;2022-11-21T02:39:12;99417.50;;;-0.45;96.40
13934;BME280;7039;52.168;9.866;2022-11-21T02:41:45;99422.50;;;-0.81;98.93
13934;BME280;7039;52.168;9.866;2022-11-21T02:44:19;99427.91;;;-0.95;99.89
13934;BME280;7039;52.168;9.866;2022-11-21T02:46:49;99419.53;;;-1.03;100.00
13934;BME280;7039;52.168;9.866;2022-11-21T02:49:21;99424.00;;;-1.13;100.00
13934;BME280;7039;52.168;9.866;2022-11-21T02:51:49;99421.78;;;-1.31;100.00
13934;BME280;7039;52.168;9.866;2022-11-21T02:54:15;99433.03;;;-1.40;100.00
13934;BME280;7039;52.168;9.866;2022-11-21T02:56:42;99434.84;;;-1.45;100.00
13934;BME280;7039;52.168;9.866;2022-11-21T02:59:08;99430.81;;;-1.58;100.00
13934;BME280;7039;52.168;9.866;2022-11-21T03:01:36;99445.25;;;-1.56;100.00
13934;BME280;7039;52.168;9.866;2022-11-21T03:04:03;99435.94;;;-1.61;100.00
13934;BME280;7039;52.168;9.866;2022-11-21T03:06:29;99438.41;;;-1.54;100.00
13934;BME280;7039;52.168;9.866;2022-11-21T03:08:56;99439.22;;;-1.53;100.00
13934;BME280;7039;52.168;9.866;2022-11-21T03:11:22;99448.63;;;-1.54;100.00
13934;BME280;7039;52.168;9.866;2022-11-21T03:13:49;99443.53;;;-1.55;100.00
13934;BME280;7039;52.168;9.866;2022-11-21T03:16:15;99448.47;;;-1.46;100.00
13934;BME280;7039;52.168;9.866;2022-11-21T03:18:43;99449.28;;;-1.44;100.00
13934;BME280;7039;52.168;9.866;2022-11-21T03:21:09;99447.63;;;-1.47;100.00
13934;BME280;7039;52.168;9.866;2022-11-21T03:23:36;99459.44;;;-1.39;100.00
13934;BME280;7039;52.168;9.866;2022-11-21T03:26:02;99467.03;;;-1.35;100.00
13934;BME280;7039;52.168;9.866;2022-11-21T03:28:29;99472.88;;;-1.28;100.00
13934;BME280;7039;52.168;9.866;2022-11-21T03:30:55;99473.59;;;-1.20;100.00
13934;BME280;7039;52.168;9.866;2022-11-21T03:33:22;99472.78;;;-1.22;100.00
13934;BME280;7039;52.168;9.866;2022-11-21T03:35:49;99474.16;;;-1.04;100.00
13934;BME280;7039;52.168;9.866;2022-11-21T03:38:16;99469.00;;;-1.02;100.00
13934;BME280;7039;52.168;9.866;2022-11-21T03:40:42;99473.94;;;-0.93;100.00
13934;BME280;7039;52.168;9.866;2022-11-21T03:43:09;99469.69;;;-0.94;100.00
13934;BME280;7039;52.168;9.866;2022-11-21T03:45:35;99480.78;;;-0.94;100.00
13934;BME280;7039;52.168;9.866;2022-11-21T03:48:02;99486.78;;;-0.95;100.00
13934;BME280;7039;52.168;9.866;2022-11-21T03:50:30;99492.66;;;-0.90;100.00
13934;BME280;7039;52.168;9.866;2022-11-21T03:52:57;99496.03;;;-0.88;100.00
13934;BME280;7039;52.168;9.866;2022-11-21T03:55:24;99495.22;;;-0.91;99.49
13934;BME280;7039;52.168;9.866;2022-11-21T03:57:50;99494.81;;;-1.13;99.53
13934;BME280;7039;52.168;9.866;2022-11-21T04:00:17;99505.88;;;-1.13;99.87
13934;BME280;7039;52.168;9.866;2022-11-21T04:02:44;99510.09;;;-1.10;100.00
13934;BME280;7039;52.168;9.866;2022-11-21T04:05:10;99509.00;;;-0.98;99.80
13934;BME280;7039;52.168;9.866;2022-11-21T04:07:37;99509.75;;;-0.92;99.66
13934;BME280;7039;52.168;9.866;2022-11-21T04:10:05;99517.31;;;-0.86;99.51
13934;BME280;7039;52.168;9.866;2022-11-21T04:12:32;99505.47;;;-0.91;99.11
13934;BME280;7039;52.168;9.866;2022-11-21T04:14:58;99505.38;;;-0.87;98.88
13934;BME280;7039;52.168;9.866;2022-11-21T04:17:25;99517.22;;;-0.79;98.89
13934;BME280;7039;52.168;9.866;2022-11-21T04:19:51;99507.84;;;-0.82;98.39
13934;BME280;7039;52.168;9.866;2022-11-21T04:22:18;99518.69;;;-0.69;97.35
13934;BME280;7039;52.168;9.866;2022-11-21T04:24:44;99517.97;;;-0.76;96.90
13934;BME280;7039;52.168;9.866;2022-11-21T04:27:12;99517.88;;;-0.71;95.83
13934;BME280;7039;52.168;9.866;2022-11-21T04:29:39;99524.09;;;-0.83;95.54
13934;BME280;7039;52.168;9.866;2022-11-21T04:32:05;99520.00;;;-0.93;95.45
13934;BME280;7039;52.168;9.866;2022-11-21T04:34:31;99518.50;;;-1.05;95.68
13934;BME280;7039;52.168;9.866;2022-11-21T04:36:58;99518.66;;;-1.13;96.22
13934;BME280;7039;52.168;9.866;2022-11-21T04:39:24;99509.44;;;-1.21;96.40
13934;BME280;7039;52.168;9.866;2022-11-21T04:41:51;99516.31;;;-1.25;96.22
13934;BME280;7039;52.168;9.866;2022-11-21T04:44:19;99513.75;;;-1.25;96.82
13934;BME280;7039;52.168;9.866;2022-11-21T04:46:45;99513.72;;;-1.23;96.32
13934;BME280;7039;52.168;9.866;2022-11-21T04:49:12;99519.00;;;-1.31;96.68
13934;BME280;7039;52.168;9.866;2022-11-21T04:51:38;99518.16;;;-1.33;96.81
13934;BME280;7039;52.168;9.866;2022-11-21T04:54:05;99526.84;;;-1.43;97.07
13934;BME280;7039;52.168;9.866;2022-11-21T04:56:31;99530.22;;;-1.41;97.09
13934;BME280;7039;52.168;9.866;2022-11-21T04:58:58;99531.13;;;-1.44;97.58
13934;BME280;7039;52.168;9.866;2022-11-21T05:01:26;99529.53;;;-1.50;97.81
13934;BME280;7039;52.168;9.866;2022-11-21T05:03:52;99532.03;;;-1.48;97.62
13934;BME280;7039;52.168;9.866;2022-11-21T05:06:19;99536.44;;;-1.56;97.54
13934;BME280;7039;52.168;9.866;2022-11-21T05:08:45;99528.78;;;-1.56;97.58
13934;BME280;7039;52.168;9.866;2022-11-21T05:11:12;99529.69;;;-1.59;97.17
13934;BME280;7039;52.168;9.866;2022-11-21T05:13:56;99535.63;;;-1.60;96.70
13934;BME280;7039;52.168;9.866;2022-11-21T05:16:22;99521.25;;;-1.65;96.74
13934;BME280;7039;52.168;9.866;2022-11-21T05:18:50;99522.16;;;-1.70;97.24
13934;BME280;7039;52.168;9.866;2022-11-21T05:21:17;99527.22;;;-1.65;97.41
13934;BME280;7039;52.168;9.866;2022-11-21T05:23:43;99527.28;;;-1.71;97.56
13934;BME280;7039;52.168;9.866;2022-11-21T05:26:10;99522.41;;;-1.85;97.57
13934;BME280;7039;52.168;9.866;2022-11-21T05:28:36;99521.50;;;-1.82;97.82
13934;BME280;7039;52.168;9.866;2022-11-21T05:31:03;99519.84;;;-1.85;97.97
13934;BME280;7039;52.168;9.866;2022-11-21T05:33:29;99516.47;;;-1.87;97.85
13934;BME280;7039;52.168;9.866;2022-11-21T05:35:57;99523.28;;;-1.87;97.85
13934;BME280;7039;52.168;9.866;2022-11-21T05:38:24;99514.88;;;-1.94;97.71
13934;BME280;7039;52.168;9.866;2022-11-21T05:40:50;99515.78;;;-1.98;97.53
13934;BME280;7039;52.168;9.866;2022-11-21T05:43:17;99515.81;;;-2.01;97.60
13934;BME280;7039;52.168;9.866;2022-11-21T05:46:01;99512.53;;;-2.10;97.63
13934;BME280;7039;52.168;9.866;2022-11-21T05:48:27;99511.59;;;-2.04;97.99
13934;BME280;7039;52.168;9.866;2022-11-21T05:50:54;99513.19;;;-1.97;97.75
13934;BME280;7039;52.168;9.866;2022-11-21T05:53:21;99514.91;;;-1.97;97.36
13934;BME280;7039;52.168;9.866;2022-11-21T05:55:48;99513.22;;;-1.98;97.62
13934;BME280;7039;52.168;9.866;2022-11-21T05:58:15;99508.94;;;-1.96;97.36
13934;BME280;7039;52.168;9.866;2022-11-21T06:00:41;99515.69;;;-1.94;97.43
13934;BME280;7039;52.168;9.866;2022-11-21T06:03:09;99508.03;;;-1.92;97.48
13934;BME280;7039;52.168;9.866;2022-11-21T06:05:49;99504.66;;;-1.96;97.44
13934;BME280;7039;52.168;9.866;2022-11-21T06:08:16;99506.38;;;-1.96;97.52
13934;BME280;7039;52.168;9.866;2022-11-21T06:10:44;99511.25;;;-1.81;97.40
13934;BME280;7039;52.168;9.866;2022-11-21T06:13:10;99518.19;;;-1.87;97.02
13934;BME280;7039;52.168;9.866;2022-11-21T06:15:48;99520.66;;;-1.83;97.11
13934;BME280;7039;52.168;9.866;2022-11-21T06:18:15;99516.47;;;-1.89;96.74
13934;BME280;7039;52.168;9.866;2022-11-21T06:20:42;99516.53;;;-1.93;97.11
13934;BME280;7039;52.168;9.866;2022-11-21T06:23:09;99530.22;;;-1.96;97.22
13934;BME280;7039;52.168;9.866;2022-11-21T06:25:36;99531.13;;;-2.00;97.19
13934;BME280;7039;52.168;9.866;2022-11-21T06:28:04;99534.47;;;-1.95;97.16
13934;BME280;7039;52.168;9.866;2022-11-21T06:30:30;99529.50;;;-2.04;97.08
13934;BME280;7039;52.168;9.866;2022-11-21T06:32:57;99521.78;;;-2.01;96.98
13934;BME280;7039;52.168;9.866;2022-11-21T06:35:24;99531.28;;;-2.11;96.63
13934;BME280;7039;52.168;9.866;2022-11-21T06:37:51;99528.75;;;-2.14;96.62
13934;BME280;7039;52.168;9.866;2022-11-21T06:40:18;99528.88;;;-2.23;96.44
13934;BME280;7039;52.168;9.866;2022-11-21T06:42:44;99534.91;;;-2.28;96.76
13934;BME280;7039;52.168;9.866;2022-11-21T06:45:12;99540.09;;;-2.33;96.90
13934;BME280;7039;52.168;9.866;2022-11-21T06:47:39;99541.09;;;-2.46;96.62
13934;BME280;7039;52.168;9.866;2022-11-21T06:50:06;99543.56;;;-2.39;96.88
13934;BME280;7039;52.168;9.866;2022-11-21T06:52:33;99555.47;;;-2.36;96.42
13934;BME280;7039;52.168;9.866;2022-11-21T06:55:00;99552.94;;;-2.41;96.11
13934;BME280;7039;52.168;9.866;2022-11-21T06:57:26;99552.09;;;-2.40;96.18
13934;BME280;7039;52.168;9.866;2022-11-21T06:59:53;99559.84;;;-2.49;96.09
13934;BME280;7039;52.168;9.866;2022-11-21T07:02:21;99545.47;;;-2.56;96.40
13934;BME280;7039;52.168;9.866;2022-11-21T07:04:47;99549.81;;;-2.64;96.61
13934;BME280;7039;52.168;9.866;2022-11-21T07:07:14;99543.94;;;-2.69;96.76
13934;BME280;7039;52.168;9.866;2022-11-21T07:09:40;99548.16;;;-2.68;97.32
13934;BME280;7039;52.168;9.866;2022-11-21T07:12:09;99550.69;;;-2.67;97.15
13934;BME280;7039;52.168;9.866;2022-11-21T07:14:53;99552.38;;;-2.64;97.53
13934;BME280;7039;52.168;9.866;2022-11-21T07:17:24;99569.28;;;-2.54;97.37
13934;BME280;7039;52.168;9.866;2022-11-21T07:19:51;99571.78;;;-2.51;97.06
13934;BME280;7039;52.168;9.866;2022-11-21T07:22:17;99571.88;;;-2.59;97.04
13934;BME280;7039;52.168;9.866;2022-11-21T07:24:44;99576.13;;;-2.59;96.96
13934;BME280;7039;52.168;9.866;2022-11-21T07:27:11;99575.28;;;-2.61;97.38
13934;BME280;7039;52.168;9.866;2022-11-21T07:29:37;99578.72;;;-2.61;97.37
13934;BME280;7039;52.168;9.866;2022-11-21T07:32:04;99580.34;;;-2.55;97.34
13934;BME280;7039;52.168;9.866;2022-11-21T07:34:32;99576.06;;;-2.52;97.23
13934;BME280;7039;52.168;9.866;2022-11-21T07:36:58;99577.72;;;-2.50;96.91
13934;BME280;7039;52.168;9.866;2022-11-21T07:39:25;99569.28;;;-2.54;96.83
13934;BME280;7039;52.168;9.866;2022-11-21T07:41:52;99575.13;;;-2.46;97.16
13934;BME280;7039;52.168;9.866;2022-11-21T07:44:18;99561.41;;;-2.39;96.92
13934;BME280;7039;52.168;9.866;2022-11-21T07:46:44;99555.41;;;-2.33;96.92
13934;BME280;7039;52.168;9.866;2022-11-21T07:49:11;99561.28;;;-2.28;96.89
13934;BME280;7039;52.168;9.866;2022-11-21T07:51:39;99566.16;;;-2.10;96.73
13934;BME280;7039;52.168;9.866;2022-11-21T07:54:05;99581.41;;;-2.03;96.60
13934;BME280;7039;52.168;9.866;2022-11-21T07:56:32;99577.94;;;-1.98;95.90
13934;BME280;7039;52.168;9.866;2022-11-21T07:58:58;99578.69;;;-1.91;95.83
13934;BME280;7039;52.168;9.866;2022-11-21T08:01:25;99588.97;;;-1.94;95.64
13934;BME280;7039;52.168;9.866;2022-11-21T08:03:51;99581.34;;;-1.97;95.73
13934;BME280;7039;52.168;9.866;2022-11-21T08:06:18;99577.09;;;-1.98;95.61
13934;BME280;7039;52.168;9.866;2022-11-21T08:08:46;99582.97;;;-1.92;95.81
13934;BME280;7039;52.168;9.866;2022-11-21T08:11:13;99593.06;;;-1.82;95.54
13934;BME280;7039;52.168;9.866;2022-11-21T08:13:42;99587.16;;;-1.86;95.67
13934;BME280;7039;52.168;9.866;2022-11-21T08:16:08;99588.78;;;-1.80;95.61
13934;BME280;7039;52.168;9.866;2022-11-21T08:18:35;99589.53;;;-1.72;95.71
13934;BME280;7039;52.168;9.866;2022-11-21T08:21:03;99583.53;;;-1.71;95.96
13934;BME280;7039;52.168;9.866;2022-11-21T08:23:31;99582.63;;;-1.67;95.70
13934;BME280;7039;52.168;9.866;2022-11-21T08:25:59;99582.56;;;-1.62;95.76
13934;BME280;7039;52.168;9.866;2022-11-21T08:28:25;99588.50;;;-1.62;95.87
13934;BME280;7039;52.168;9.866;2022-11-21T08:30:52;99588.34;;;-1.50;96.10
13934;BME280;7039;52.168;9.866;2022-11-21T08:33:19;99583.97;;;-1.43;95.91
13934;BME280;7039;52.168;9.866;2022-11-21T08:35:45;99589.06;;;-1.41;95.73
13934;BME280;7039;52.168;9.866;2022-11-21T08:38:12;99594.94;;;-1.36;96.06
13934;BME280;7039;52.168;9.866;2022-11-21T08:40:41;99587.31;;;-1.39;96.91
13934;BME280;7039;52.168;9.866;2022-11-21T08:43:09;99581.31;;;-1.37;96.79
13934;BME280;7039;52.168;9.866;2022-11-21T08:45:37;99591.38;;;-1.26;96.35
13934;BME280;7039;52.168;9.866;2022-11-21T08:48:08;99587.91;;;-1.23;96.30
13934;BME280;7039;52.168;9.866;2022-11-21T08:50:35;99584.53;;;-1.26;96.58
13934;BME280;7039;52.168;9.866;2022-11-21T08:53:02;99588.00;;;-1.28;96.58
13934;BME280;7039;52.168;9.866;2022-11-21T08:55:29;99591.28;;;-1.21;96.40
13934;BME280;7039;52.168;9.866;2022-11-21T08:57:56;99593.88;;;-1.23;96.54
13934;BME280;7039;52.168;9.866;2022-11-21T09:00:29;99594.69;;;-1.19;97.15
13934;BME280;7039;52.168;9.866;2022-11-21T09:02:56;99583.63;;;-1.21;97.41
13934;BME280;7039;52.168;9.866;2022-11-21T09:05:22;99587.06;;;-1.22;96.71
13934;BME280;7039;52.168;9.866;2022-11-21T09:07:54;99597.25;;;-1.19;96.75
13934;BME280;7039;52.168;9.866;2022-11-21T09:10:21;99587.00;;;-1.19;96.58
13934;BME280;7039;52.168;9.866;2022-11-21T09:12:47;99593.72;;;-1.14;96.51
13934;BME280;7039;52.168;9.866;2022-11-21T09:15:14;99591.13;;;-1.11;96.42
13934;BME280;7039;52.168;9.866;2022-11-21T09:18:00;99600.56;;;-1.14;96.63
13934;BME280;7039;52.168;9.866;2022-11-21T09:20:35;99597.00;;;-1.06;96.83
13934;BME280;7039;52.168;9.866;2022-11-21T09:23:06;99587.41;;;-0.93;96.96
13934;BME280;7039;52.168;9.866;2022-11-21T09:25:34;99588.19;;;-0.89;96.44
13934;BME280;7039;52.168;9.866;2022-11-21T09:28:12;99585.47;;;-0.80;95.97
13934;BME280;7039;52.168;9.866;2022-11-21T09:30:48;99588.72;;;-0.70;96.32
13934;BME280;7039;52.168;9.866;2022-11-21T09:33:34;99587.00;;;-0.70;95.42
13934;BME280;7039;52.168;9.866;2022-11-21T09:36:02;99590.28;;;-0.63;95.29
13934;BME280;7039;52.168;9.866;2022-11-21T09:38:39;99601.09;;;-0.49;94.39
13934;BME280;7039;52.168;9.866;2022-11-21T09:41:34;99599.47;;;-0.51;93.74
13934;BME280;7039;52.168;9.866;2022-11-21T09:44:37;99589.22;;;-0.51;94.01
13934;BME280;7039;52.168;9.866;2022-11-21T09:47:14;99602.72;;;-0.43;94.35
13934;BME280;7039;52.168;9.866;2022-11-21T09:49:48;99603.38;;;-0.32;94.25
13934;BME280;7039;52.168;9.866;2022-11-21T09:52:19;99598.28;;;-0.35;93.01
13934;BME280;7039;52.168;9.866;2022-11-21T09:54:49;99599.16;;;-0.36;93.45
13934;BME280;7039;52.168;9.866;2022-11-21T09:57:20;99581.38;;;-0.44;93.13
13934;BME280;7039;52.168;9.866;2022-11-21T09:59:49;99594.03;;;-0.36;93.10
13934;BME280;7039;52.168;9.866;2022-11-21T10:02:18;99586.13;;;-0.25;93.12
13934;BME280;7039;52.168;9.866;2022-11-21T10:04:58;99587.03;;;-0.28;92.85
13934;BME280;7039;52.168;9.866;2022-11-21T10:07:37;99587.00;;;-0.26;92.64
13934;BME280;7039;52.168;9.866;2022-11-21T10:10:17;99590.31;;;-0.21;92.39
13934;BME280;7039;52.168;9.866;2022-11-21T10:12:54;99587.56;;;-0.12;91.96
13934;BME280;7039;52.168;9.866;2022-11-21T10:15:43;99586.50;;;-0.02;91.74
13934;BME280;7039;52.168;9.866;2022-11-21T10:18:31;99585.59;;;0.01;91.62
13934;BME280;7039;52.168;9.866;2022-11-21T10:21:11;99582.56;;;0.23;92.04
13934;BME280;7039;52.168;9.866;2022-11-21T10:23:58;99588.38;;;0.29;90.70
13934;BME280;7039;52.168;9.866;2022-11-21T10:26:35;99589.59;;;0.14;90.00
13934;BME280;7039;52.168;9.866;2022-11-21T10:29:11;99581.25;;;0.05;90.26
13934;BME280;7039;52.168;9.866;2022-11-21T10:31:42;99582.03;;;0.07;90.96
13934;BME280;7039;52.168;9.866;2022-11-21T10:34:09;99578.53;;;0.12;90.31
13934;BME280;7039;52.168;9.866;2022-11-21T10:36:40;99586.53;;;0.36;90.67
13934;BME280;7039;52.168;9.866;2022-11-21T10:39:12;99570.09;;;0.45;90.03
13934;BME280;7039;52.168;9.866;2022-11-21T10:41:47;99573.94;;;0.62;89.41
13934;BME280;7039;52.168;9.866;2022-11-21T10:44:22;99572.09;;;0.69;88.15
13934;BME280;7039;52.168;9.866;2022-11-21T10:47:13;99556.72;;;0.68;87.50
13934;BME280;7039;52.168;9.866;2022-11-21T10:49:41;99551.75;;;0.61;87.82
13934;BME280;7039;52.168;9.866;2022-11-21T10:52:12;99545.53;;;0.70;87.73
13934;BME280;7039;52.168;9.866;2022-11-21T10:55:05;99541.91;;;0.79;86.77
13934;BME280;7039;52.168;9.866;2022-11-21T10:57:38;99546.97;;;0.82;86.97
13934;BME280;7039;52.168;9.866;2022-11-21T11:00:16;99540.84;;;0.86;86.72
13934;BME280;7039;52.168;9.866;2022-11-21T11:02:58;99550.00;;;0.98;86.24
13934;BME280;7039;52.168;9.866;2022-11-21T11:05:29;99553.19;;;1.06;85.72
13934;BME280;7039;52.168;9.866;2022-11-21T11:08:08;99553.31;;;1.34;85.15
13934;BME280;7039;52.168;9.866;2022-11-21T11:10:36;99542.16;;;1.34;84.54
13934;BME280;7039;52.168;9.866;2022-11-21T11:13:11;99548.34;;;1.28;84.75
13934;BME280;7039;52.168;9.866;2022-11-21T11:16:01;99535.59;;;1.25;84.66
13934;BME280;7039;52.168;9.866;2022-11-21T11:18:29;99539.56;;;1.35;84.27
13934;BME280;7039;52.168;9.866;2022-11-21T11:21:10;99529.03;;;1.44;83.67
13934;BME280;7039;52.168;9.866;2022-11-21T11:23:38;99524.28;;;1.62;84.58
13934;BME280;7039;52.168;9.866;2022-11-21T11:26:17;99525.13;;;1.61;83.69
13934;BME280;7039;52.168;9.866;2022-11-21T11:28:45;99510.50;;;1.64;84.12
13934;BME280;7039;52.168;9.866;2022-11-21T11:31:11;99517.69;;;1.81;83.02
13934;BME280;7039;52.168;9.866;2022-11-21T11:33:40;99515.88;;;1.85;81.93
13934;BME280;7039;52.168;9.866;2022-11-21T11:36:19;99518.50;;;1.83;80.92
13934;BME280;7039;52.168;9.866;2022-11-21T11:38:55;99510.19;;;1.75;81.14
13934;BME280;7039;52.168;9.866;2022-11-21T11:41:49;99505.19;;;1.71;81.40
13934;BME280;7039;52.168;9.866;2022-11-21T11:44:43;99496.06;;;1.88;83.20
13934;BME280;7039;52.168;9.866;2022-11-21T11:47:33;99485.84;;;1.87;81.78
13934;BME280;7039;52.168;9.866;2022-11-21T11:50:08;99477.47;;;1.80;81.75
13934;BME280;7039;52.168;9.866;2022-11-21T11:52:43;99477.47;;;1.80;81.80
13934;BME280;7039;52.168;9.866;2022-11-21T11:55:18;99481.63;;;1.84;82.08
13934;BME280;7039;52.168;9.866;2022-11-21T11:57:49;99476.06;;;1.98;81.44
13934;BME280;7039;52.168;9.866;2022-11-21T12:00:25;99475.78;;;2.07;81.16
13934;BME280;7039;52.168;9.866;2022-11-21T12:02:57;99477.44;;;2.08;80.61
13934;BME280;7039;52.168;9.866;2022-11-21T12:05:26;99471.72;;;2.00;81.29
13934;BME280;7039;52.168;9.866;2022-11-21T12:08:03;99475.00;;;2.04;80.23
13934;BME280;7039;52.168;9.866;2022-11-21T12:10:38;99468.94;;;1.78;80.75
13934;BME280;7039;52.168;9.866;2022-11-21T12:13:27;99457.75;;;1.51;81.83
13934;BME280;7039;52.168;9.866;2022-11-21T12:15:56;99459.31;;;1.85;82.01
13934;BME280;7039;52.168;9.866;2022-11-21T12:18:32;99450.53;;;1.92;81.84
13934;BME280;7039;52.168;9.866;2022-11-21T12:21:06;99445.66;;;1.83;81.20
13934;BME280;7039;52.168;9.866;2022-11-21T12:23:38;99442.66;;;1.97;81.28
13934;BME280;7039;52.168;9.866;2022-11-21T12:26:17;99434.09;;;1.98;80.66
13934;BME280;7039;52.168;9.866;2022-11-21T12:28:54;99438.50;;;1.93;80.86
13934;BME280;7039;52.168;9.866;2022-11-21T12:31:32;99440.94;;;1.97;79.85
13934;BME280;7039;52.168;9.866;2022-11-21T12:34:20;99435.00;;;1.95;79.50
13934;BME280;7039;52.168;9.866;2022-11-21T12:36:57;99427.94;;;2.02;79.24
13934;BME280;7039;52.168;9.866;2022-11-21T12:39:42;99421.91;;;2.03;79.50
13934;BME280;7039;52.168;9.866;2022-11-21T12:42:21;99418.88;;;2.17;78.88
13934;BME280;7039;52.168;9.866;2022-11-21T12:45:24;99415.75;;;2.34;78.59
13934;BME280;7039;52.168;9.866;2022-11-21T12:51:37;99417.81;;;2.49;78.19
13934;BME280;7039;52.168;9.866;2022-11-21T12:54:45;99412.50;;;2.54;77.90
13934;BME280;7039;52.168;9.866;2022-11-21T12:57:17;99403.91;;;2.55;78.03
13934;BME280;7039;52.168;9.866;2022-11-21T12:59:51;99406.53;;;2.53;77.73
13934;BME280;7039;52.168;9.866;2022-11-21T13:02:36;99405.69;;;2.78;78.14
13934;BME280;7039;52.168;9.866;2022-11-21T13:05:10;99396.00;;;2.84;77.45
13934;BME280;7039;52.168;9.866;2022-11-21T13:07:39;99393.19;;;2.90;76.62
13934;BME280;7039;52.168;9.866;2022-11-21T13:10:11;99378.53;;;2.92;76.04
13934;BME280;7039;52.168;9.866;2022-11-21T13:12:44;99383.16;;;3.06;76.78
13934;BME280;7039;52.168;9.866;2022-11-21T13:15:20;99384.63;;;3.13;75.64
13934;BME280;7039;52.168;9.866;2022-11-21T13:17:52;99378.06;;;3.28;75.36
13934;BME280;7039;52.168;9.866;2022-11-21T13:20:24;99379.03;;;3.02;75.47
13934;BME280;7039;52.168;9.866;2022-11-21T13:22:55;99373.94;;;3.01;75.60
13934;BME280;7039;52.168;9.866;2022-11-21T13:25:38;99367.88;;;3.02;75.70
13934;BME280;7039;52.168;9.866;2022-11-21T13:35:00;99367.78;;;3.27;74.91
13934;BME280;7039;52.168;9.866;2022-11-21T13:38:06;99368.50;;;3.08;74.42
13934;BME280;7039;52.168;9.866;2022-11-21T13:40:57;99369.63;;;3.25;74.86